createdAt,value
2022-11-01T07:26:38.851Z,65.061996
2022-11-01T07:27:48.474Z,65.208
2022-11-01T07:28:57.133Z,65.176003
2022-11-01T07:30:06.776Z,65.121002
2022-11-01T07:31:15.366Z,65.181999
2022-11-01T07:32:23.967Z,65.247002
2022-11-01T07:33:33.569Z,65.279999
2022-11-01T07:34:42.263Z,65.297997
2022-11-01T07:35:49.907Z,65.285004
2022-11-01T07:36:59.548Z,65.352997
2022-11-01T07:38:12.654Z,65.356003
2022-11-01T07:39:17.719Z,65.317001
2022-11-01T07:40:26.353Z,65.235001
2022-11-01T07:41:34.893Z,65.195
2022-11-01T07:42:44.499Z,65.191002
2022-11-01T07:43:54.055Z,65.194
2022-11-01T07:45:01.626Z,65.230003
2022-11-01T07:46:12.195Z,65.290001
2022-11-01T07:47:20.810Z,65.311996
2022-11-01T07:48:29.399Z,65.254997
2022-11-01T07:49:37.977Z,65.196999
2022-11-01T07:50:46.564Z,65.147003
2022-11-01T07:52:00.290Z,65.170998
2022-11-01T07:53:06.706Z,65.163002
2022-11-01T07:54:14.270Z,65.121002
2022-11-01T07:55:23.869Z,65.069
2022-11-01T07:56:32.496Z,65.045998
2022-11-01T07:57:41.076Z,65.042999
2022-11-01T07:58:49.677Z,65.017998
2022-11-01T07:59:58.269Z,65.007004
2022-11-01T08:01:07.997Z,64.967003
2022-11-01T08:02:16.510Z,64.948997
2022-11-01T08:03:24.039Z,64.93
2022-11-01T08:04:33.587Z,64.942001
2022-11-01T08:05:42.159Z,64.928001
2022-11-01T08:06:52.204Z,64.874001
2022-11-01T08:08:00.624Z,64.865997
2022-11-01T08:09:08.852Z,64.827003
2022-11-01T08:10:18.416Z,64.815002
2022-11-01T08:11:26.975Z,64.748001
2022-11-01T08:12:34.522Z,64.748001
2022-11-01T08:13:44.114Z,64.662003
2022-11-01T08:14:52.699Z,64.606003
2022-11-01T08:16:01.229Z,64.538002
2022-11-01T08:17:09.797Z,64.542999
2022-11-01T08:18:18.380Z,64.475998
2022-11-01T08:19:27.925Z,64.416
2022-11-01T08:20:36.485Z,64.403
2022-11-01T08:21:45.064Z,64.341003
2022-11-01T08:22:54.631Z,64.386002
2022-11-01T08:24:03.205Z,64.316002
2022-11-01T08:25:11.749Z,64.277
2022-11-01T08:26:20.303Z,64.227997
2022-11-01T08:27:30.299Z,64.202003
2022-11-01T08:28:39.447Z,64.179001
2022-11-01T08:29:46.981Z,64.184998
2022-11-01T08:30:56.593Z,64.177002
2022-11-01T08:32:06.123Z,64.103996
2022-11-01T08:33:14.666Z,64.164001
2022-11-01T08:34:24.269Z,64.140999
2022-11-01T08:35:32.811Z,64.126999
2022-11-01T08:36:41.367Z,64.134003
2022-11-01T08:37:49.950Z,64.160004
2022-11-01T08:38:59.571Z,64.157997
2022-11-01T08:40:09.174Z,64.084999
2022-11-01T08:41:16.771Z,64.071999
2022-11-01T08:42:25.327Z,64.077003
2022-11-01T08:43:37.870Z,64.083
2022-11-01T08:44:44.604Z,64.004997
2022-11-01T08:45:53.157Z,64.028
2022-11-01T08:47:01.804Z,64.07
2022-11-01T08:48:10.365Z,64.102997
2022-11-01T08:49:18.940Z,64.107002
2022-11-01T08:50:26.492Z,64.078003
2022-11-01T08:51:34.042Z,64.040001
2022-11-01T08:52:43.598Z,64.051003
2022-11-01T08:53:52.268Z,63.945
2022-11-01T08:55:00.833Z,63.905998
2022-11-01T08:56:09.381Z,63.852001
2022-11-01T08:57:17.936Z,63.792
2022-11-01T08:58:27.507Z,63.737999
2022-11-01T08:59:35.069Z,63.699001
2022-11-01T09:00:42.600Z,63.667999
2022-11-01T09:01:52.263Z,63.604
2022-11-01T09:03:00.771Z,63.591
2022-11-01T09:04:09.316Z,63.548
2022-11-01T09:05:17.883Z,63.535
2022-11-01T09:06:26.453Z,63.490002
2022-11-01T09:07:37.051Z,63.453999
2022-11-01T09:08:46.698Z,63.396
2022-11-01T09:09:55.327Z,63.341999
2022-11-01T09:11:04.915Z,63.321999
2022-11-01T09:12:14.574Z,63.348
2022-11-01T09:13:23.067Z,63.383999
2022-11-01T09:14:31.659Z,63.365002
2022-11-01T09:15:40.226Z,63.345001
2022-11-01T09:16:49.829Z,63.307999
2022-11-01T09:17:58.447Z,63.301998
2022-11-01T09:19:08.083Z,63.252998
2022-11-01T09:20:17.666Z,63.214001
2022-11-01T09:21:31.337Z,63.179001
2022-11-01T09:22:35.791Z,63.140999
2022-11-01T09:23:44.365Z,63.113998
2022-11-01T09:24:53.186Z,63.101002
2022-11-01T09:26:02.820Z,63.078999
2022-11-01T09:27:10.392Z,63.097
2022-11-01T09:28:17.996Z,63.077999
2022-11-01T09:29:27.665Z,63.051998
2022-11-01T09:30:38.947Z,63.02
2022-11-01T09:31:45.665Z,63
2022-11-01T09:32:54.261Z,62.941002
2022-11-01T09:34:03.861Z,62.882999
2022-11-01T09:35:13.494Z,62.896
2022-11-01T09:36:23.066Z,62.876999
2022-11-01T09:37:30.631Z,62.812
2022-11-01T09:38:40.207Z,62.819
2022-11-01T09:39:48.753Z,62.814999
2022-11-01T09:40:57.306Z,62.794998
2022-11-01T09:42:05.894Z,62.77
2022-11-01T09:43:14.464Z,62.789001
2022-11-01T09:44:25.043Z,62.757
2022-11-01T09:45:32.611Z,62.724998
2022-11-01T09:46:41.193Z,62.737999
2022-11-01T09:47:50.786Z,62.688999
2022-11-01T09:49:00.373Z,62.688999
2022-11-01T09:50:08.959Z,62.675999
2022-11-01T09:51:17.600Z,62.707001
2022-11-01T09:52:27.159Z,62.745998
2022-11-01T09:53:36.905Z,62.757999
2022-11-01T09:54:45.887Z,62.707001
2022-11-01T09:55:53.497Z,62.726002
2022-11-01T09:57:02.251Z,62.720001
2022-11-01T09:58:11.265Z,62.750999
2022-11-01T09:59:19.903Z,62.783001
2022-11-01T10:00:28.525Z,62.814999
2022-11-01T10:01:37.165Z,62.888
2022-11-01T10:02:47.044Z,62.939999
2022-11-01T10:03:54.827Z,62.966
2022-11-01T10:05:02.341Z,62.987999
2022-11-01T10:06:12.023Z,63.046001
2022-11-01T10:07:20.614Z,63.058998
2022-11-01T10:08:29.353Z,63.084
2022-11-01T10:09:36.925Z,63.091
2022-11-01T10:10:45.752Z,63.145
2022-11-01T10:11:55.321Z,63.158001
2022-11-01T10:13:04.438Z,63.191002
2022-11-01T10:14:12.994Z,63.290001
2022-11-01T10:15:22.685Z,63.387001
2022-11-01T10:16:31.304Z,63.400002
2022-11-01T10:17:40.889Z,63.400002
2022-11-01T10:18:50.472Z,63.321999
2022-11-01T10:20:00.209Z,63.334999
2022-11-01T10:21:09.690Z,63.341999
2022-11-01T10:22:18.706Z,63.354
2022-11-01T10:23:28.300Z,63.334999
2022-11-01T10:24:38.113Z,63.380001
2022-11-01T10:25:47.226Z,63.472
2022-11-01T10:26:56.337Z,63.549999
2022-11-01T10:28:06.124Z,63.617001
2022-11-01T10:29:14.686Z,63.674999
2022-11-01T10:30:25.249Z,63.655998
2022-11-01T10:31:32.852Z,63.655998
2022-11-01T10:32:42.512Z,63.636002
2022-11-01T10:33:51.146Z,63.661999
2022-11-01T10:34:58.689Z,63.757999
2022-11-01T10:36:08.263Z,63.812
2022-11-01T10:37:18.668Z,63.812
2022-11-01T10:38:41.756Z,63.842999
2022-11-01T10:39:56.055Z,63.669998
2022-11-01T10:40:48.454Z,63.618
2022-11-01T10:41:58.315Z,63.82
2022-11-01T10:43:06.898Z,63.894001
2022-11-01T10:44:15.637Z,63.775002
2022-11-01T10:45:25.186Z,63.793999
2022-11-01T10:46:34.729Z,63.833
2022-11-01T10:47:44.296Z,63.833
2022-11-01T10:48:52.836Z,63.931999
2022-11-01T10:50:06.795Z,63.883999
2022-11-01T10:51:12.886Z,63.845001
2022-11-01T10:52:20.445Z,63.977001
2022-11-01T10:53:30.011Z,63.870998
2022-11-01T10:54:39.567Z,63.889999
2022-11-01T10:55:48.140Z,63.91
2022-11-01T10:56:56.676Z,63.926998
2022-11-01T10:58:05.779Z,64.032997
2022-11-01T10:59:13.967Z,63.992001
2022-11-01T11:00:23.526Z,64.045998
2022-11-01T11:01:31.187Z,64.040001
2022-11-01T11:02:39.752Z,64.027
2022-11-01T11:03:49.195Z,64.007004
2022-11-01T11:04:57.742Z,63.992001
2022-11-01T11:06:06.295Z,63.966
2022-11-01T11:07:17.462Z,64.007004
2022-11-01T11:08:23.395Z,64.044998
2022-11-01T11:09:32.951Z,64.044998
2022-11-01T11:10:40.553Z,64.057999
2022-11-01T11:11:50.168Z,64.029999
2022-11-01T11:12:59.926Z,64.044998
2022-11-01T11:14:09.213Z,64.110001
2022-11-01T11:15:17.795Z,64.102997
2022-11-01T11:16:26.370Z,64.089996
2022-11-01T11:17:35.941Z,64.123001
2022-11-01T11:18:45.504Z,64.110001
2022-11-01T11:19:54.105Z,64.084
2022-11-01T11:21:02.693Z,64.136002
2022-11-01T11:22:12.196Z,64.102997
2022-11-01T11:23:20.802Z,64.123001
2022-11-01T11:24:30.346Z,64.114998
2022-11-01T11:25:37.920Z,64.099998
2022-11-01T11:26:48.535Z,64.106003
2022-11-01T11:27:58.120Z,64.067001
2022-11-01T11:29:07.802Z,64.047997
2022-11-01T11:30:15.345Z,64.014999
2022-11-01T11:31:24.994Z,64.092003
2022-11-01T11:32:33.551Z,64.105003
2022-11-01T11:33:42.153Z,64.111
2022-11-01T11:34:51.721Z,64.115997
2022-11-01T11:35:59.273Z,64.115997
2022-11-01T11:37:08.882Z,64.155998
2022-11-01T11:38:17.451Z,64.155998
2022-11-01T11:39:25.041Z,64.123001
2022-11-01T11:40:34.614Z,64.086998
2022-11-01T11:41:43.180Z,64.086998
2022-11-01T11:42:50.766Z,64.135002
2022-11-01T11:43:59.333Z,64.153999
2022-11-01T11:45:07.869Z,64.140999
2022-11-01T11:46:17.438Z,64.122002
2022-11-01T11:47:25.015Z,64.122002
2022-11-01T11:48:34.602Z,64.172997
2022-11-01T11:49:44.155Z,64.237999
2022-11-01T11:50:52.729Z,64.244003
2022-11-01T11:52:01.330Z,64.262001
2022-11-01T11:53:09.890Z,64.175003
2022-11-01T11:54:19.529Z,64.103996
2022-11-01T11:55:29.086Z,64.141998
2022-11-01T11:56:36.671Z,64.181
2022-11-01T11:57:44.344Z,64.167999
2022-11-01T11:58:53.915Z,64.219002
2022-11-01T12:00:02.519Z,64.148003
2022-11-01T12:01:11.105Z,64.096001
2022-11-01T12:02:19.710Z,64.096001
2022-11-01T12:03:28.171Z,64.072998
2022-11-01T12:04:37.753Z,64.014999
2022-11-01T12:05:46.331Z,64.028
2022-11-01T12:06:53.861Z,64.014999
2022-11-01T12:08:03.456Z,64.021004
2022-11-01T12:09:12.021Z,63.941002
2022-11-01T12:10:22.651Z,64.080002
2022-11-01T12:11:31.211Z,64.105003
2022-11-01T12:12:40.832Z,64.067001
2022-11-01T12:13:50.499Z,64.094002
2022-11-01T12:14:59.205Z,64.141998
2022-11-01T12:16:08.793Z,64.028999
2022-11-01T12:17:18.401Z,64.047997
2022-11-01T12:18:27.009Z,64.042
2022-11-01T12:19:36.665Z,64.086998
2022-11-01T12:20:45.256Z,64.094002
2022-11-01T12:21:53.894Z,64.022003
2022-11-01T12:23:03.418Z,64.111
2022-11-01T12:24:11.977Z,64.078003
2022-11-01T12:25:20.599Z,64.111
2022-11-01T12:26:30.196Z,64.129997
2022-11-01T12:27:39.770Z,64.065002
2022-11-01T12:28:49.316Z,64.024002
2022-11-01T12:29:58.923Z,63.972
2022-11-01T12:31:07.501Z,63.952999
2022-11-01T12:32:16.096Z,63.890999
2022-11-01T12:33:24.686Z,63.865002
2022-11-01T12:34:35.078Z,63.826
2022-11-01T12:35:44.836Z,63.826
2022-11-01T12:36:52.348Z,63.720001
2022-11-01T12:38:02.204Z,63.678001
2022-11-01T12:39:10.600Z,63.723
2022-11-01T12:40:20.280Z,63.716
2022-11-01T12:41:28.874Z,63.696999
2022-11-01T12:42:37.450Z,63.676998
2022-11-01T12:43:47.069Z,63.651001
2022-11-01T12:44:54.622Z,63.550999
2022-11-01T12:46:02.193Z,63.490002
2022-11-01T12:47:11.860Z,63.505001
2022-11-01T12:48:20.514Z,63.505001
2022-11-01T12:49:29.127Z,63.494999
2022-11-01T12:50:38.697Z,63.494999
2022-11-01T12:51:47.260Z,63.437
2022-11-01T12:52:57.021Z,63.375999
2022-11-01T12:54:04.562Z,63.272999
2022-11-01T12:55:14.197Z,63.224998
2022-11-01T12:56:23.658Z,63.272999
2022-11-01T12:57:33.248Z,63.285999
2022-11-01T12:58:41.806Z,63.217999
2022-11-01T12:59:50.388Z,63.25
2022-11-01T13:00:59.030Z,63.263
2022-11-01T13:02:08.820Z,63.256001
2022-11-01T13:03:16.262Z,63.256001
2022-11-01T13:04:30.435Z,63.23
2022-11-01T13:05:36.410Z,63.23
2022-11-01T13:06:44.959Z,63.210999
2022-11-01T13:07:53.578Z,63.210999
2022-11-01T13:09:02.231Z,63.205002
2022-11-01T13:10:11.928Z,63.192001
2022-11-01T13:11:21.434Z,63.198002
2022-11-01T13:12:30.057Z,63.192001
2022-11-01T13:13:37.632Z,63.198002
2022-11-01T13:14:47.216Z,63.172001
2022-11-01T13:15:55.828Z,63.151001
2022-11-01T13:17:04.473Z,63.138
2022-11-01T13:18:13.142Z,63.151001
2022-11-01T13:19:21.742Z,63.125
2022-11-01T13:20:31.340Z,63.111
2022-11-01T13:21:40.922Z,63.124001
2022-11-01T13:22:49.487Z,63.069
2022-11-01T13:23:59.139Z,63.018002
2022-11-01T13:25:07.760Z,62.972
2022-11-01T13:26:17.349Z,62.985001
2022-11-01T13:27:25.974Z,62.979
2022-11-01T13:28:34.527Z,62.979
2022-11-01T13:29:45.403Z,62.985001
2022-11-01T13:30:55.109Z,62.985001
2022-11-01T13:32:03.767Z,62.979
2022-11-01T13:33:13.438Z,62.966
2022-11-01T13:34:22.033Z,62.972
2022-11-01T13:35:30.671Z,62.952999
2022-11-01T13:36:39.208Z,62.924999
2022-11-01T13:37:47.789Z,62.946999
2022-11-01T13:38:57.375Z,62.946999
2022-11-01T13:40:06.054Z,62.946999
2022-11-01T13:41:14.567Z,62.938
2022-11-01T13:42:24.176Z,62.931
2022-11-01T13:43:32.781Z,62.931
2022-11-01T13:44:41.370Z,62.911999
2022-11-01T13:45:50.947Z,62.898998
2022-11-01T13:47:00.521Z,62.848
2022-11-01T13:48:10.111Z,62.799999
2022-11-01T13:49:17.670Z,62.808998
2022-11-01T13:50:24.232Z,62.805
2022-11-01T13:51:33.901Z,62.824001
2022-11-01T13:52:43.510Z,62.805
2022-11-01T13:53:53.081Z,62.778999
2022-11-01T13:55:02.649Z,62.792
2022-11-01T13:56:11.196Z,62.792
2022-11-01T13:57:20.800Z,62.818001
2022-11-01T13:58:28.333Z,62.805
2022-11-01T13:59:35.939Z,62.772999
2022-11-01T14:00:45.496Z,62.660999
2022-11-01T14:01:55.229Z,62.59
2022-11-01T14:03:03.618Z,62.562
